Time;durP1;ratioP1;P1;durP2;ratioP2;P2;SDS_P1;SDS_P2;PMS_P1;PMS_P2;Temp;Humidity;BMP_temperature;BMP_pressure;BME280_temperature;BME280_humidity;BME280_pressure;Samples;Min_cycle;Max_cycle;Signal;HPM_P1;HPM_P2
2022/10/03 00:00:41;;;;;;;23.57;7.50;;;;;;;;;;5055974;28;20210;-65
2022/10/03 00:03:17;;;;;;;22.53;8.53;;;;;;;;;;5056110;28;20225;-65
2022/10/03 00:05:53;;;;;;;20.53;8.50;;;;;;;;;;5055936;28;20265;-65
2022/10/03 00:08:25;;;;;;;23.33;10.50;;;;;;;;;;5056163;28;20277;-65
2022/10/03 00:10:51;;;;;;;26.13;8.17;;;;;;;;;;5056106;28;20192;-65
2022/10/03 00:13:33;;;;;;;22.10;8.50;;;;;;;;;;5055868;28;20233;-65
2022/10/03 00:16:15;;;;;;;27.80;9.57;;;;;;;;;;5056100;28;20151;-65
2022/10/03 00:18:44;;;;;;;19.13;8.33;;;;;;;;;;5055540;28;20195;-65
2022/10/03 00:21:29;;;;;;;23.67;8.67;;;;;;;;;;5054292;28;20178;-65
2022/10/03 00:24:06;;;;;;;27.07;9.83;;;;;;;;;;5055542;28;20194;-65
2022/10/03 00:26:40;;;;;;;19.67;9.03;;;;;;;;;;5054128;28;20185;-65
2022/10/03 00:29:18;;;;;;;23.07;9.40;;;;;;;;;;5055667;28;20224;-65
2022/10/03 00:31:57;;;;;;;37.73;9.67;;;;;;;;;;5055385;28;20185;-65
2022/10/03 00:34:44;;;;;;;20.90;8.60;;;;;;;;;;5055373;28;20194;-65
2022/10/03 00:37:19;;;;;;;23.57;8.40;;;;;;;;;;5055404;28;20232;-65
2022/10/03 00:39:48;;;;;;;34.83;8.60;;;;;;;;;;5055617;28;20275;-65
2022/10/03 00:42:23;;;;;;;27.17;8.27;;;;;;;;;;5055302;28;20171;-65
2022/10/03 00:44:58;;;;;;;30.07;8.37;;;;;;;;;;5053873;28;20182;-65
2022/10/03 00:47:33;;;;;;;20.17;8.43;;;;;;;;;;5053588;28;20213;-65
2022/10/03 00:50:18;;;;;;;19.27;8.60;;;;;;;;;;5055322;28;20170;-65
2022/10/03 00:52:47;;;;;;;23.63;8.93;;;;;;;;;;5053567;28;20178;-66
2022/10/03 00:55:25;;;;;;;25.50;9.10;;;;;;;;;;5054938;28;20170;-65
2022/10/03 00:58:02;;;;;;;24.90;8.37;;;;;;;;;;5053580;28;20214;-65
2022/10/03 01:00:29;;;;;;;27.27;9.50;;;;;;;;;;5054783;28;20166;-65
2022/10/03 01:02:58;;;;;;;24.23;9.50;;;;;;;;;;5053486;28;20190;-65
2022/10/03 01:05:32;;;;;;;27.73;8.93;;;;;;;;;;5054986;28;20178;-65
2022/10/03 01:08:16;;;;;;;29.30;9.33;;;;;;;;;;5053936;28;20186;-65
2022/10/03 01:10:43;;;;;;;22.17;9.57;;;;;;;;;;5054596;28;20170;-65
2022/10/03 01:13:18;;;;;;;22.50;8.97;;;;;;;;;;5053892;28;20206;-65
2022/10/03 01:15:47;;;;;;;20.87;9.00;;;;;;;;;;5053246;28;20232;-65
2022/10/03 01:18:27;;;;;;;25.80;10.10;;;;;;;;;;5053137;28;20526;-65
2022/10/03 01:21:14;;;;;;;26.17;9.07;;;;;;;;;;5054500;28;20158;-65
2022/10/03 01:23:55;;;;;;;25.50;9.33;;;;;;;;;;5055030;28;20175;-65
2022/10/03 01:26:38;;;;;;;23.53;10.97;;;;;;;;;;5054316;28;20244;-65
2022/10/03 01:31:57;;;;;;;22.37;9.53;;;;;;;;;;5054521;28;20173;-63
2022/10/03 01:34:23;;;;;;;21.43;9.93;;;;;;;;;;5052915;28;20208;-64
2022/10/03 01:37:01;;;;;;;23.77;9.90;;;;;;;;;;5052815;28;20268;-64
2022/10/03 01:39:36;;;;;;;27.07;9.43;;;;;;;;;;5052724;28;20297;-64
2022/10/03 01:42:09;;;;;;;21.80;9.57;;;;;;;;;;5054744;28;20541;-64
2022/10/03 01:44:44;;;;;;;25.63;9.90;;;;;;;;;;5052672;28;20569;-65
2022/10/03 01:47:39;;;;;;;28.10;9.40;;;;;;;;;;5053704;28;20182;-64
2022/10/03 01:50:16;;;;;;;18.53;8.97;;;;;;;;;;5040836;28;20573;-65
2022/10/03 01:52:51;;;;;;;25.10;9.43;;;;;;;;;;5053805;28;20213;-66
2022/10/03 01:55:25;;;;;;;24.30;9.17;;;;;;;;;;5053896;28;20647;-62
2022/10/03 01:58:00;;;;;;;23.17;8.77;;;;;;;;;;5053824;28;20256;-64
2022/10/03 02:00:27;;;;;;;22.83;9.37;;;;;;;;;;5054028;28;20538;-66
2022/10/03 02:03:10;;;;;;;23.63;9.33;;;;;;;;;;5053726;28;20175;-63
2022/10/03 02:05:54;;;;;;;25.57;9.93;;;;;;;;;;5054105;28;20575;-66
2022/10/03 02:08:28;;;;;;;29.47;11.30;;;;;;;;;;5053986;28;20205;-64
2022/10/03 02:11:01;;;;;;;26.90;10.27;;;;;;;;;;5053791;28;20178;-66
2022/10/03 02:13:30;;;;;;;25.07;10.17;;;;;;;;;;5053793;28;20547;-66
2022/10/03 02:15:56;;;;;;;25.10;10.10;;;;;;;;;;5053584;28;20178;-65
2022/10/03 02:18:22;;;;;;;22.60;9.83;;;;;;;;;;5053287;28;20269;-66
2022/10/03 02:20:51;;;;;;;26.60;10.40;;;;;;;;;;5051429;28;20626;-65
2022/10/03 02:23:37;;;;;;;22.03;9.87;;;;;;;;;;5053435;28;20281;-66
2022/10/03 02:26:04;;;;;;;24.67;10.10;;;;;;;;;;5053644;28;20542;-65
2022/10/03 02:28:39;;;;;;;20.97;10.30;;;;;;;;;;5053256;28;20755;-65
2022/10/03 02:31:19;;;;;;;25.80;10.37;;;;;;;;;;5053335;28;20202;-65
2022/10/03 02:34:04;;;;;;;22.87;9.83;;;;;;;;;;5053360;28;20269;-65
2022/10/03 02:36:39;;;;;;;22.20;9.60;;;;;;;;;;5053252;28;20546;-65
2022/10/03 02:39:32;;;;;;;23.53;10.30;;;;;;;;;;5051890;28;20206;-66
2022/10/03 02:42:04;;;;;;;22.83;10.37;;;;;;;;;;5053252;28;20159;-66
2022/10/03 02:44:49;;;;;;;29.40;10.30;;;;;;;;;;5053048;28;20174;-66
2022/10/03 02:47:33;;;;;;;23.27;10.73;;;;;;;;;;5053027;28;20513;-66
2022/10/03 02:50:09;;;;;;;21.40;10.07;;;;;;;;;;5051876;28;20193;-64
2022/10/03 02:52:37;;;;;;;24.57;9.43;;;;;;;;;;5051801;28;20182;-66
2022/10/03 02:55:22;;;;;;;21.73;9.20;;;;;;;;;;5053275;28;20202;-66
2022/10/03 02:58:06;;;;;;;25.40;10.27;;;;;;;;;;5053095;28;20222;-65
2022/10/03 03:00:38;;;;;;;22.83;10.07;;;;;;;;;;5052995;28;20236;-66
2022/10/03 03:03:10;;;;;;;22.50;9.43;;;;;;;;;;5052901;28;20647;-65
2022/10/03 03:05:55;;;;;;;17.77;8.53;;;;;;;;;;5078277;23;20234;-68
2022/10/03 03:08:23;;;;;;;23.00;9.63;;;;;;;;;;5053179;28;20162;-68
2022/10/03 03:11:08;;;;;;;20.23;9.43;;;;;;;;;;5035113;28;20189;-68
2022/10/03 03:13:40;;;;;;;18.07;9.30;;;;;;;;;;5052910;28;20202;-68
2022/10/03 03:16:32;;;;;;;20.93;8.97;;;;;;;;;;5035427;28;20661;-68
2022/10/03 03:19:04;;;;;;;13.33;8.33;;;;;;;;;;5035137;28;20171;-69
2022/10/03 03:21:49;;;;;;;24.83;8.33;;;;;;;;;;5052822;28;20174;-68
2022/10/03 03:24:24;;;;;;;18.00;8.33;;;;;;;;;;5034885;28;20663;-67
2022/10/03 03:27:09;;;;;;;23.30;9.30;;;;;;;;;;5053127;28;20177;-68
2022/10/03 03:30:01;;;;;;;19.67;9.73;;;;;;;;;;5034892;28;20270;-68
2022/10/03 03:32:33;;;;;;;19.93;10.17;;;;;;;;;;5056555;28;20245;-68
2022/10/03 03:35:18;;;;;;;20.33;10.00;;;;;;;;;;5056481;28;20214;-68
2022/10/03 03:38:07;;;;;;;21.63;9.70;;;;;;;;;;5056873;28;20170;-67
2022/10/03 03:40:52;;;;;;;24.40;10.30;;;;;;;;;;5043591;28;20193;-68
2022/10/03 03:43:25;;;;;;;25.57;9.90;;;;;;;;;;5038596;28;20272;-68
2022/10/03 03:45:53;;;;;;;19.93;9.07;;;;;;;;;;5056928;28;20205;-68
2022/10/03 03:48:38;;;;;;;20.37;9.20;;;;;;;;;;5038539;28;20189;-67
2022/10/03 03:51:11;;;;;;;18.00;10.17;;;;;;;;;;5056278;28;20182;-67
2022/10/03 03:53:53;;;;;;;18.03;9.10;;;;;;;;;;5038196;28;20206;-68
2022/10/03 03:56:19;;;;;;;17.17;9.20;;;;;;;;;;5056159;28;20202;-68
2022/10/03 03:58:57;;;;;;;18.77;10.10;;;;;;;;;;5038358;28;20186;-67
2022/10/03 04:01:23;;;;;;;25.23;9.50;;;;;;;;;;5056094;28;20178;-68
2022/10/03 04:03:52;;;;;;;18.90;9.37;;;;;;;;;;5056095;28;20175;-68
2022/10/03 04:06:33;;;;;;;16.60;9.50;;;;;;;;;;5055899;28;20222;-68
2022/10/03 04:09:05;;;;;;;22.00;9.10;;;;;;;;;;5055979;28;20171;-67
2022/10/03 04:11:40;;;;;;;19.53;8.97;;;;;;;;;;5038086;28;20647;-68
2022/10/03 04:14:06;;;;;;;16.90;9.00;;;;;;;;;;5055852;28;20632;-67
2022/10/03 04:19:40;;;;;;;20.60;9.47;;;;;;;;;;5055880;28;20212;-68
2022/10/03 04:22:17;;;;;;;16.03;9.70;;;;;;;;;;5038008;28;20173;-68
2022/10/03 04:24:53;;;;;;;18.53;9.60;;;;;;;;;;5055926;28;20201;-68
2022/10/03 04:27:19;;;;;;;25.40;10.53;;;;;;;;;;5037814;28;20214;-68
2022/10/03 04:29:57;;;;;;;28.97;11.73;;;;;;;;;;5055692;28;20182;-68
2022/10/03 04:32:41;;;;;;;20.53;10.27;;;;;;;;;;5055578;28;20186;-68
2022/10/03 04:35:16;;;;;;;19.90;10.37;;;;;;;;;;5037552;28;20213;-67
2022/10/03 04:37:51;;;;;;;28.23;10.00;;;;;;;;;;5055825;28;20181;-68
2022/10/03 04:40:17;;;;;;;17.47;10.50;;;;;;;;;;5055632;28;20175;-68
2022/10/03 04:42:48;;;;;;;19.63;10.93;;;;;;;;;;5036681;28;20186;-68
2022/10/03 04:45:17;;;;;;;21.90;11.10;;;;;;;;;;5055436;28;20198;-68
2022/10/03 04:47:56;;;;;;;25.83;10.93;;;;;;;;;;5037393;28;20235;-68
2022/10/03 04:50:37;;;;;;;20.73;10.07;;;;;;;;;;5037530;28;20174;-68
2022/10/03 04:53:12;;;;;;;24.23;10.50;;;;;;;;;;5055136;28;20673;-68
2022/10/03 04:55:41;;;;;;;21.10;10.23;;;;;;;;;;5037348;28;20320;-68
2022/10/03 04:58:25;;;;;;;29.07;11.00;;;;;;;;;;5037387;28;20178;-68
2022/10/03 05:00:54;;;;;;;26.87;9.93;;;;;;;;;;5037252;28;20584;-68
2022/10/03 05:03:40;;;;;;;28.67;10.97;;;;;;;;;;5055092;28;20178;-68
2022/10/03 05:06:22;;;;;;;23.53;10.40;;;;;;;;;;5036980;28;20371;-68
2022/10/03 05:08:58;;;;;;;20.10;10.53;;;;;;;;;;5037171;28;20269;-68
2022/10/03 05:11:42;;;;;;;22.17;10.03;;;;;;;;;;5036958;28;20174;-68
2022/10/03 05:14:21;;;;;;;20.07;10.00;;;;;;;;;;5054975;28;20642;-67
2022/10/03 05:16:50;;;;;;;20.03;10.37;;;;;;;;;;5054865;28;20177;-68
2022/10/03 05:19:35;;;;;;;18.37;10.13;;;;;;;;;;5036898;28;20174;-68
2022/10/03 05:22:11;;;;;;;20.50;11.03;;;;;;;;;;5037118;28;20558;-69
2022/10/03 05:24:46;;;;;;;21.77;11.30;;;;;;;;;;5036765;28;20244;-68
2022/10/03 05:27:22;;;;;;;21.53;10.87;;;;;;;;;;5054749;28;20178;-68
2022/10/03 05:29:59;;;;;;;25.90;11.67;;;;;;;;;;5036687;28;20201;-68
2022/10/03 05:32:43;;;;;;;18.80;10.83;;;;;;;;;;5036611;28;20665;-68
2022/10/03 05:35:15;;;;;;;20.83;11.73;;;;;;;;;;5036440;28;20694;-68
2022/10/03 05:37:47;;;;;;;23.37;11.40;;;;;;;;;;5054331;28;20206;-68
2022/10/03 05:40:24;;;;;;;28.80;11.37;;;;;;;;;;5054585;28;20178;-69
2022/10/03 05:42:58;;;;;;;27.83;12.10;;;;;;;;;;5036546;28;20170;-69
2022/10/03 05:45:43;;;;;;;24.23;11.40;;;;;;;;;;5054424;28;20202;-69
2022/10/03 05:48:09;;;;;;;26.37;12.47;;;;;;;;;;5054433;28;20646;-68
2022/10/03 05:50:56;;;;;;;29.33;12.53;;;;;;;;;;5054363;28;20179;-69
2022/10/03 05:53:28;;;;;;;23.70;12.00;;;;;;;;;;5054231;28;20206;-69
2022/10/03 05:56:13;;;;;;;20.47;11.80;;;;;;;;;;5054202;28;20616;-68
2022/10/03 05:58:42;;;;;;;31.23;13.93;;;;;;;;;;5036054;28;20277;-69
2022/10/03 06:01:08;;;;;;;32.93;16.70;;;;;;;;;;5054080;28;20671;-68
2022/10/03 06:03:44;;;;;;;24.47;14.17;;;;;;;;;;5036195;28;20186;-68
2022/10/03 06:06:10;;;;;;;28.27;14.20;;;;;;;;;;5054925;28;20209;-69
2022/10/03 06:08:44;;;;;;;25.03;13.83;;;;;;;;;;5056123;28;20244;-67
2022/10/03 06:11:10;;;;;;;26.60;13.30;;;;;;;;;;5058027;28;20166;-68
2022/10/03 06:14:08;;;;;;;30.67;13.27;;;;;;;;;;5040406;28;20209;-68
2022/10/03 06:16:49;;;;;;;26.83;12.50;;;;;;;;;;5056121;28;20167;-68
2022/10/03 06:19:15;;;;;;;25.73;12.80;;;;;;;;;;5036254;28;20185;-69
2022/10/03 06:22:01;;;;;;;24.80;13.43;;;;;;;;;;5036245;28;20178;-68
2022/10/03 06:24:46;;;;;;;26.60;13.20;;;;;;;;;;5041256;28;20202;-68
2022/10/03 06:27:27;;;;;;;21.23;11.50;;;;;;;;;;5053508;28;20186;-69
2022/10/03 06:29:56;;;;;;;23.80;12.43;;;;;;;;;;5053574;28;20174;-68
2022/10/03 06:32:31;;;;;;;23.17;12.67;;;;;;;;;;5035556;28;20214;-68
2022/10/03 06:35:16;;;;;;;22.80;13.40;;;;;;;;;;5035445;28;20209;-69
2022/10/03 06:38:00;;;;;;;22.30;12.50;;;;;;;;;;5053468;28;20178;-68
2022/10/03 06:40:47;;;;;;;26.93;13.70;;;;;;;;;;5035429;28;20186;-68
2022/10/03 06:43:34;;;;;;;23.63;13.17;;;;;;;;;;5053636;28;20170;-68
2022/10/03 06:46:19;;;;;;;23.43;11.97;;;;;;;;;;5053217;28;20276;-68
2022/10/03 06:49:04;;;;;;;20.87;12.13;;;;;;;;;;5053266;28;20700;-68
2022/10/03 06:51:46;;;;;;;26.17;11.87;;;;;;;;;;5035034;28;20189;-68
2022/10/03 06:54:39;;;;;;;20.23;11.97;;;;;;;;;;5052906;28;20209;-68
2022/10/03 06:57:34;;;;;;;26.00;11.47;;;;;;;;;;5035362;28;20177;-68
2022/10/03 07:00:00;;;;;;;24.13;11.73;;;;;;;;;;5035218;28;20183;-69
2022/10/03 07:02:44;;;;;;;21.03;10.77;;;;;;;;;;5053211;28;20170;-68
2022/10/03 07:05:13;;;;;;;22.97;10.57;;;;;;;;;;5052710;28;20219;-68
2022/10/03 07:07:52;;;;;;;18.90;10.10;;;;;;;;;;5039275;28;20190;-68
2022/10/03 07:10:27;;;;;;;19.63;10.77;;;;;;;;;;5057265;28;20545;-69
2022/10/03 07:13:15;;;;;;;27.23;10.87;;;;;;;;;;5056920;28;20572;-68
2022/10/03 07:16:00;;;;;;;22.13;10.40;;;;;;;;;;5039297;28;20661;-68
2022/10/03 07:18:42;;;;;;;20.23;10.07;;;;;;;;;;5057422;28;20257;-68
2022/10/03 07:21:27;;;;;;;24.87;10.57;;;;;;;;;;5057046;28;20163;-67
2022/10/03 07:23:53;;;;;;;15.97;9.97;;;;;;;;;;5057077;28;20546;-68
2022/10/03 07:26:25;;;;;;;23.30;10.60;;;;;;;;;;5056544;28;20579;-67
2022/10/03 07:29:09;;;;;;;23.10;9.33;;;;;;;;;;5056839;28;20175;-67
2022/10/03 07:31:54;;;;;;;17.83;9.23;;;;;;;;;;5056795;28;20209;-68
2022/10/03 07:34:20;;;;;;;17.30;8.97;;;;;;;;;;5056747;28;20209;-68
2022/10/03 07:39:37;;;;;;;17.70;8.60;;;;;;;;;;5056945;28;20202;-68
2022/10/03 07:42:21;;;;;;;14.10;8.67;;;;;;;;;;5038919;28;20269;-67
2022/10/03 07:45:06;;;;;;;17.37;9.43;;;;;;;;;;5039228;28;20233;-67
2022/10/03 07:47:47;;;;;;;17.43;9.20;;;;;;;;;;5057640;28;20228;-68
2022/10/03 07:50:34;;;;;;;20.43;10.03;;;;;;;;;;5039198;28;20187;-68
2022/10/03 07:53:00;;;;;;;22.23;10.23;;;;;;;;;;5056600;28;20163;-68
2022/10/03 07:55:32;;;;;;;22.40;10.23;;;;;;;;;;5038488;28;20288;-68
2022/10/03 07:58:18;;;;;;;24.80;10.53;;;;;;;;;;5056440;28;20179;-68
2022/10/03 08:01:16;;;;;;;18.20;9.33;;;;;;;;;;5056183;28;20182;-68
2022/10/03 08:03:55;;;;;;;18.83;9.47;;;;;;;;;;5001835;28;20191;-68
2022/10/03 08:06:37;;;;;;;18.13;10.07;;;;;;;;;;5057085;28;20263;-68
2022/10/03 08:09:11;;;;;;;19.27;9.23;;;;;;;;;;5056348;28;20170;-68
2022/10/03 08:11:40;;;;;;;17.17;8.90;;;;;;;;;;5056393;28;20638;-68
2022/10/03 08:14:09;;;;;;;26.73;10.67;;;;;;;;;;5056346;28;20206;-68
2022/10/03 08:16:47;;;;;;;19.20;9.53;;;;;;;;;;5056012;28;20181;-68
2022/10/03 08:19:13;;;;;;;21.90;9.80;;;;;;;;;;5055849;28;20526;-68
2022/10/03 08:21:58;;;;;;;19.23;9.70;;;;;;;;;;5056162;28;20193;-68
2022/10/03 08:24:33;;;;;;;15.90;9.50;;;;;;;;;;5055754;28;20250;-68
2022/10/03 08:27:06;;;;;;;24.63;9.40;;;;;;;;;;5055929;28;20198;-68
2022/10/03 08:29:35;;;;;;;18.23;8.53;;;;;;;;;;5056077;28;20580;-68
2022/10/03 08:32:00;;;;;;;16.13;8.67;;;;;;;;;;5055829;28;20257;-68
2022/10/03 08:34:42;;;;;;;17.10;8.90;;;;;;;;;;5055466;28;20294;-68
2022/10/03 08:37:20;;;;;;;18.87;9.13;;;;;;;;;;5037824;28;20526;-67
2022/10/03 08:40:06;;;;;;;14.07;8.37;;;;;;;;;;5055773;28;20532;-69
2022/10/03 08:42:35;;;;;;;20.73;9.47;;;;;;;;;;5055484;28;20174;-68
2022/10/03 08:45:19;;;;;;;15.13;8.67;;;;;;;;;;5037455;28;20695;-70
2022/10/03 08:47:48;;;;;;;21.80;8.90;;;;;;;;;;5055377;28;20257;-69
2022/10/03 08:50:17;;;;;;;19.00;8.37;;;;;;;;;;5055541;28;20263;-69
2022/10/03 08:53:02;;;;;;;18.63;8.23;;;;;;;;;;5037653;28;20665;-70
2022/10/03 08:55:29;;;;;;;15.90;8.50;;;;;;;;;;5055081;28;20208;-69
2022/10/03 08:58:14;;;;;;;17.50;7.50;;;;;;;;;;5037155;28;20227;-69
2022/10/03 09:00:58;;;;;;;18.80;7.60;;;;;;;;;;5055032;28;20711;-69
2022/10/03 09:03:43;;;;;;;23.30;6.93;;;;;;;;;;5055034;28;20175;-69
2022/10/03 09:06:12;;;;;;;11.70;7.13;;;;;;;;;;5054850;28;20214;-70
2022/10/03 09:08:57;;;;;;;12.83;7.10;;;;;;;;;;5037144;28;20269;-70
2022/10/03 09:11:41;;;;;;;19.60;7.60;;;;;;;;;;5054984;28;20698;-69
2022/10/03 09:14:17;;;;;;;12.97;6.30;;;;;;;;;;5036907;28;20670;-69
2022/10/03 09:16:59;;;;;;;12.93;6.37;;;;;;;;;;5055190;28;20162;-69
2022/10/03 09:19:39;;;;;;;20.43;6.97;;;;;;;;;;5054755;28;20217;-69
2022/10/03 09:22:08;;;;;;;15.23;6.83;;;;;;;;;;5054943;28;20162;-70
2022/10/03 09:24:54;;;;;;;14.57;5.77;;;;;;;;;;5054840;28;20198;-69
2022/10/03 09:27:38;;;;;;;19.40;6.13;;;;;;;;;;5036539;28;20268;-70
2022/10/03 09:30:21;;;;;;;17.43;6.60;;;;;;;;;;5036054;28;20271;-70
2022/10/03 09:32:53;;;;;;;14.20;5.43;;;;;;;;;;5054455;28;20155;-69
2022/10/03 09:35:38;;;;;;;14.63;5.53;;;;;;;;;;5036290;28;20214;-69
2022/10/03 09:38:04;;;;;;;10.17;5.00;;;;;;;;;;5036532;28;20181;-69
2022/10/03 09:40:56;;;;;;;12.70;5.40;;;;;;;;;;5054619;28;20178;-69
2022/10/03 09:43:40;;;;;;;13.27;5.00;;;;;;;;;;5036424;28;20178;-69
2022/10/03 09:46:25;;;;;;;12.57;4.77;;;;;;;;;;5053990;28;20209;-69
2022/10/03 09:49:12;;;;;;;12.80;4.70;;;;;;;;;;5036294;28;20567;-68
2022/10/03 09:51:57;;;;;;;15.30;4.20;;;;;;;;;;5054081;28;20170;-69
2022/10/03 09:54:33;;;;;;;9.67;4.57;;;;;;;;;;5053791;28;20694;-69
2022/10/03 09:57:11;;;;;;;10.17;4.10;;;;;;;;;;5053904;28;20232;-69
2022/10/03 09:59:51;;;;;;;9.53;3.50;;;;;;;;;;5053834;28;20170;-69
2022/10/03 10:02:23;;;;;;;13.47;3.97;;;;;;;;;;5054042;28;20173;-69
2022/10/03 10:05:10;;;;;;;13.17;4.33;;;;;;;;;;5053805;28;20221;-67
2022/10/03 10:07:36;;;;;;;14.13;3.90;;;;;;;;;;5053690;28;20209;-67
2022/10/03 10:10:05;;;;;;;10.83;3.40;;;;;;;;;;5053763;28;20186;-67
2022/10/03 10:12:31;;;;;;;12.53;2.80;;;;;;;;;;5053481;28;20579;-67
2022/10/03 10:14:56;;;;;;;10.93;3.00;;;;;;;;;;5035569;28;20220;-67
2022/10/03 10:17:22;;;;;;;12.53;3.57;;;;;;;;;;5053777;28;20235;-68
2022/10/03 10:20:04;;;;;;;10.37;3.17;;;;;;;;;;5053539;28;20178;-68
2022/10/03 10:22:36;;;;;;;11.80;3.30;;;;;;;;;;5053762;28;20246;-67
2022/10/03 10:25:21;;;;;;;10.37;2.93;;;;;;;;;;5035475;28;20202;-67
2022/10/03 10:28:00;;;;;;;13.60;4.07;;;;;;;;;;5054047;28;20245;-68
2022/10/03 10:33:17;;;;;;;8.63;3.33;;;;;;;;;;5050479;22;20318;-67
2022/10/03 10:36:09;;;;;;;8.23;2.80;;;;;;;;;;5015605;28;20681;-67
2022/10/03 10:38:42;;;;;;;10.30;3.77;;;;;;;;;;5033241;28;20163;-67
2022/10/03 10:41:27;;;;;;;15.77;4.00;;;;;;;;;;5032585;28;20187;-68
2022/10/03 10:43:52;;;;;;;12.20;3.23;;;;;;;;;;5033538;28;20186;-67
2022/10/03 10:46:37;;;;;;;12.67;3.03;;;;;;;;;;5033534;28;20180;-67
2022/10/03 10:49:18;;;;;;;11.60;3.20;;;;;;;;;;5033277;28;20179;-68
2022/10/03 10:51:50;;;;;;;13.87;3.27;;;;;;;;;;5015350;28;20198;-67
2022/10/03 10:54:19;;;;;;;6.43;2.37;;;;;;;;;;5033112;28;20199;-67
2022/10/03 10:57:04;;;;;;;8.40;2.50;;;;;;;;;;5033087;28;20183;-67
2022/10/03 10:59:33;;;;;;;9.80;2.40;;;;;;;;;;5033130;28;20175;-67
2022/10/03 11:02:17;;;;;;;13.73;2.53;;;;;;;;;;5032944;28;20205;-67
2022/10/03 11:05:02;;;;;;;7.60;2.40;;;;;;;;;;5032980;28;20551;-66
2022/10/03 11:07:47;;;;;;;9.20;2.50;;;;;;;;;;5015344;28;20660;-67
2022/10/03 11:10:29;;;;;;;4.90;1.80;;;;;;;;;;5033211;28;20546;-68
2022/10/03 11:13:14;;;;;;;8.37;2.50;;;;;;;;;;5015350;28;20202;-67
2022/10/03 11:15:52;;;;;;;9.13;2.13;;;;;;;;;;5033142;28;20213;-67
2022/10/03 11:18:38;;;;;;;11.30;2.30;;;;;;;;;;5033181;28;20301;-68
2022/10/03 11:21:23;;;;;;;10.53;2.20;;;;;;;;;;5033203;28;20203;-67
2022/10/03 11:23:58;;;;;;;6.30;2.50;;;;;;;;;;5033264;28;20254;-67
2022/10/03 11:26:43;;;;;;;5.93;2.23;;;;;;;;;;5032944;28;20178;-67
2022/10/03 11:29:11;;;;;;;10.47;2.00;;;;;;;;;;5032844;28;20171;-67
2022/10/03 11:31:56;;;;;;;6.93;2.37;;;;;;;;;;5032527;28;20294;-68
2022/10/03 11:34:41;;;;;;;12.87;2.53;;;;;;;;;;5032761;28;20210;-67
2022/10/03 11:37:18;;;;;;;11.83;2.37;;;;;;;;;;5032905;28;20178;-67
2022/10/03 11:40:00;;;;;;;10.17;2.10;;;;;;;;;;5032974;28;20155;-67
2022/10/03 11:42:46;;;;;;;7.27;2.33;;;;;;;;;;5033045;28;20207;-67
2022/10/03 11:45:21;;;;;;;4.77;1.70;;;;;;;;;;5032970;28;20520;-67
2022/10/03 11:48:01;;;;;;;12.17;2.43;;;;;;;;;;5014964;28;20233;-67
2022/10/03 11:50:30;;;;;;;11.50;2.10;;;;;;;;;;5033275;28;20195;-67
2022/10/03 11:53:07;;;;;;;9.73;2.07;;;;;;;;;;5035323;28;20281;-67
2022/10/03 11:55:33;;;;;;;6.30;2.10;;;;;;;;;;5018737;28;20237;-67
2022/10/03 11:57:59;;;;;;;7.43;2.40;;;;;;;;;;5018552;28;20175;-67
2022/10/03 12:00:25;;;;;;;7.90;2.60;;;;;;;;;;5036762;28;20194;-68
2022/10/03 12:02:51;;;;;;;4.60;1.60;;;;;;;;;;5036462;28;20203;-68
2022/10/03 12:05:21;;;;;;;6.90;2.10;;;;;;;;;;5018933;28;20193;-67
2022/10/03 12:09:10;;;;;;;7.70;2.30;;;;;;;;;;5036386;28;20179;-68
2022/10/03 12:11:27;;;;;;;7.60;1.70;;;;;;;;;;5023354;28;20273;-68
2022/10/03 12:14:11;;;;;;;12.97;2.33;;;;;;;;;;5035986;28;20539;-67
2022/10/03 12:16:40;;;;;;;8.40;2.17;;;;;;;;;;5036053;28;20579;-68
2022/10/03 12:19:15;;;;;;;7.40;2.13;;;;;;;;;;5035962;28;20266;-67
2022/10/03 12:21:54;;;;;;;6.70;2.07;;;;;;;;;;5036036;28;20279;-67
2022/10/03 12:24:24;;;;;;;7.80;2.03;;;;;;;;;;5036048;28;20670;-67
2022/10/03 12:27:00;;;;;;;7.10;2.67;;;;;;;;;;5018150;28;20175;-67
2022/10/03 12:29:31;;;;;;;8.80;2.03;;;;;;;;;;5017983;28;20187;-67
2022/10/03 12:31:57;;;;;;;7.90;2.37;;;;;;;;;;5017810;28;20222;-67
2022/10/03 12:34:29;;;;;;;10.03;2.40;;;;;;;;;;5035690;28;20257;-67
2022/10/03 12:36:58;;;;;;;7.90;2.10;;;;;;;;;;5017756;28;20183;-67
2022/10/03 12:39:43;;;;;;;5.47;2.10;;;;;;;;;;5035749;28;20542;-67
2022/10/03 12:42:28;;;;;;;4.57;2.00;;;;;;;;;;5035622;28;20190;-67
2022/10/03 12:45:03;;;;;;;6.00;1.90;;;;;;;;;;5017720;28;20202;-67
2022/10/03 12:47:44;;;;;;;5.93;1.90;;;;;;;;;;5035405;28;20183;-67
2022/10/03 12:50:31;;;;;;;9.57;1.73;;;;;;;;;;5017603;28;20199;-67
2022/10/03 12:53:19;;;;;;;5.77;1.70;;;;;;;;;;5035542;28;20203;-67
2022/10/03 12:55:54;;;;;;;6.63;2.00;;;;;;;;;;5017527;28;20183;-66
2022/10/03 12:58:35;;;;;;;8.97;2.10;;;;;;;;;;5017390;28;20174;-67
2022/10/03 13:01:24;;;;;;;11.53;2.27;;;;;;;;;;5035281;28;20201;-67
2022/10/03 13:04:09;;;;;;;6.87;1.93;;;;;;;;;;5034078;28;20163;-67
2022/10/03 13:06:54;;;;;;;6.17;2.00;;;;;;;;;;5035394;28;20198;-68
2022/10/03 13:09:20;;;;;;;8.53;2.50;;;;;;;;;;5035335;28;20182;-67
2022/10/03 13:11:53;;;;;;;7.83;1.73;;;;;;;;;;5035015;28;20202;-67
2022/10/03 13:14:19;;;;;;;7.63;2.00;;;;;;;;;;5035216;28;20646;-67
2022/10/03 13:16:45;;;;;;;7.50;1.93;;;;;;;;;;5017113;28;20267;-65
2022/10/03 13:19:14;;;;;;;2.70;1.70;;;;;;;;;;5035099;28;20266;-67
2022/10/03 13:21:50;;;;;;;4.73;1.77;;;;;;;;;;5034811;28;20191;-67
2022/10/03 13:24:22;;;;;;;7.90;1.90;;;;;;;;;;5034766;28;20205;-67
2022/10/03 13:26:57;;;;;;;5.90;2.07;;;;;;;;;;5034614;28;20261;-67
2022/10/03 13:29:43;;;;;;;5.40;1.87;;;;;;;;;;5034737;28;20189;-67
2022/10/03 13:32:45;;;;;;;5.37;1.73;;;;;;;;;;5016606;28;20317;-67
2022/10/03 13:38:22;;;;;;;4.07;2.20;;;;;;;;;;4973612;28;20185;-67
2022/10/03 13:40:56;;;;;;;5.93;2.07;;;;;;;;;;4957303;28;20228;-67
2022/10/03 13:43:27;;;;;;;3.93;1.83;;;;;;;;;;5005869;28;20197;-67
2022/10/03 13:45:56;;;;;;;7.17;1.70;;;;;;;;;;5034488;28;20167;-67
2022/10/03 13:48:25;;;;;;;4.87;1.53;;;;;;;;;;5034309;28;20190;-67
2022/10/03 13:51:01;;;;;;;4.10;2.13;;;;;;;;;;5016350;28;20184;-67
2022/10/03 13:53:39;;;;;;;4.33;1.77;;;;;;;;;;5034138;28;20671;-67
2022/10/03 13:56:12;;;;;;;6.27;2.00;;;;;;;;;;5034262;28;20181;-67
2022/10/03 13:58:49;;;;;;;6.20;1.70;;;;;;;;;;5016397;28;20241;-66
2022/10/03 14:01:37;;;;;;;3.50;1.67;;;;;;;;;;5034358;28;20194;-67
2022/10/03 14:04:08;;;;;;;6.10;1.93;;;;;;;;;;5034261;28;20167;-67
2022/10/03 14:06:53;;;;;;;4.13;1.63;;;;;;;;;;5034221;28;20254;-67
2022/10/03 14:09:35;;;;;;;6.40;1.77;;;;;;;;;;5033986;28;20175;-69
2022/10/03 14:12:04;;;;;;;5.20;2.10;;;;;;;;;;5016067;28;20214;-67
2022/10/03 14:14:49;;;;;;;5.13;1.90;;;;;;;;;;5015946;28;20203;-68
2022/10/03 14:17:19;;;;;;;5.83;1.87;;;;;;;;;;5033929;28;20201;-68
2022/10/03 14:20:05;;;;;;;5.53;1.87;;;;;;;;;;5016318;28;20575;-68
2022/10/03 14:22:48;;;;;;;7.00;2.17;;;;;;;;;;5033806;28;20199;-68
2022/10/03 14:25:20;;;;;;;5.13;2.20;;;;;;;;;;5015881;28;20179;-68
2022/10/03 14:27:49;;;;;;;7.83;2.17;;;;;;;;;;5015923;28;20666;-68
2022/10/03 14:30:21;;;;;;;6.77;1.93;;;;;;;;;;5015939;28;20598;-68
2022/10/03 14:32:56;;;;;;;5.23;2.10;;;;;;;;;;5016571;28;20218;-68
2022/10/03 14:35:33;;;;;;;4.70;2.03;;;;;;;;;;5034109;28;20650;-68
2022/10/03 14:37:59;;;;;;;8.63;2.20;;;;;;;;;;5034003;28;20155;-71
2022/10/03 14:40:43;;;;;;;5.00;2.07;;;;;;;;;;5033675;28;20190;-68
2022/10/03 14:43:27;;;;;;;4.87;1.70;;;;;;;;;;5034138;28;20179;-69
2022/10/03 14:45:55;;;;;;;5.93;2.10;;;;;;;;;;5033717;28;20266;-68
2022/10/03 14:48:24;;;;;;;7.37;2.37;;;;;;;;;;5033392;28;20254;-69
2022/10/03 14:50:53;;;;;;;5.90;1.97;;;;;;;;;;5033593;28;20635;-68
2022/10/03 14:53:26;;;;;;;7.63;2.23;;;;;;;;;;5033500;28;20190;-67
2022/10/03 14:55:52;;;;;;;5.93;1.60;;;;;;;;;;5015621;28;20750;-68
2022/10/03 14:58:22;;;;;;;5.10;1.90;;;;;;;;;;5015599;28;20266;-68
2022/10/03 15:01:01;;;;;;;8.73;2.00;;;;;;;;;;5033261;28;20548;-67
2022/10/03 15:03:29;;;;;;;7.77;2.07;;;;;;;;;;5033211;28;20182;-69
2022/10/03 15:06:00;;;;;;;5.33;2.07;;;;;;;;;;5015491;28;20183;-66
2022/10/03 15:08:31;;;;;;;4.13;1.90;;;;;;;;;;5033058;28;20183;-66
2022/10/03 15:10:58;;;;;;;8.17;2.63;;;;;;;;;;5033266;28;20195;-67
2022/10/03 15:13:25;;;;;;;6.20;2.33;;;;;;;;;;5032963;28;20175;-67
2022/10/03 15:15:54;;;;;;;9.07;2.73;;;;;;;;;;5033311;28;20185;-67
2022/10/03 15:18:22;;;;;;;6.33;2.73;;;;;;;;;;5015158;28;20552;-67
2022/10/03 15:20:50;;;;;;;4.60;2.53;;;;;;;;;;5015252;28;20179;-68
2022/10/03 15:23:27;;;;;;;5.53;2.67;;;;;;;;;;5033341;28;20179;-69
2022/10/03 15:25:53;;;;;;;7.60;2.33;;;;;;;;;;5032940;28;20195;-68
2022/10/03 15:28:26;;;;;;;7.90;2.30;;;;;;;;;;5036808;28;20175;-69
2022/10/03 15:30:54;;;;;;;7.20;2.30;;;;;;;;;;5018835;28;20179;-68
2022/10/03 15:33:31;;;;;;;6.13;3.00;;;;;;;;;;5036774;28;20217;-67
2022/10/03 15:36:04;;;;;;;4.27;2.27;;;;;;;;;;5037096;28;20171;-71
2022/10/03 15:38:34;;;;;;;4.77;2.30;;;;;;;;;;5036996;28;20175;-69
2022/10/03 15:41:07;;;;;;;10.47;2.20;;;;;;;;;;5019141;28;20661;-68